VIJP/JAI METAR and TAF weather

Enter ICAO airport designator
Station Type Date Time Source
VIJP METAR 2022/07/01 01:30 UTC NOAA

VIJP 010130Z VRB03KT 3000 HZ SCT030 FEW035CB BKN100 25/24 Q1003 NOSIG


Station Type Date Time Source
VIJP Decoded METAR 2022/07/01 01:30 UTC NOAA

Jaipur / Sanganer, India (VIJP) 26-49N 075-48E 390M
Jun 30, 2022 - 09:30 PM EDT / 2022.07.01 0130 UTC
Wind: Variable at 3 MPH (3 KT):0
Visibility: 1 mile(s):0
Sky conditions: mostly cloudy
Weather: haze; Cumulonimbus clouds observed
Temperature: 77 F (25 C)
Dew Point: 75 F (24 C)
Relative Humidity: 94%
Pressure (altimeter): 29.62 in. Hg (1003 hPa)
ob: VIJP 010130Z VRB03KT 3000 HZ SCT030 FEW035CB BKN100 25/24 Q1003 NOSIG
cycle: 1

Station Type Date Time Source
VIJP TAF 2022/06/30 18:00 UTC NOAA

TAF VIJP 301700Z 3018/0214 22008KT 3000 HZ BR SCT030 BKN090
BECMG 0100/0102 02005KT 2000 RA TSRA SCT030 FEW035CB OVC090
BECMG 0112/0114 22005KT 3000 BR RA FEW035CB OVC080

Example: see airport list